sensor_id;sensor_type;location;lat;lon;timestamp;P1;durP1;ratioP1;P2;durP2;ratioP2
61085;SDS011;46967;48.876;2.136;2023-02-28T00:00:42;8.68;;;4.82;;
61085;SDS011;46967;48.876;2.136;2023-02-28T00:03:08;11.38;;;5.38;;
61085;SDS011;46967;48.876;2.136;2023-02-28T00:05:33;7.15;;;5.10;;
61085;SDS011;46967;48.876;2.136;2023-02-28T00:07:59;9.48;;;5.00;;
61085;SDS011;46967;48.876;2.136;2023-02-28T00:10:26;7.22;;;4.72;;
61085;SDS011;46967;48.876;2.136;2023-02-28T00:12:53;7.80;;;4.90;;
61085;SDS011;46967;48.876;2.136;2023-02-28T00:15:22;7.85;;;4.53;;
61085;SDS011;46967;48.876;2.136;2023-02-28T00:17:48;8.38;;;4.78;;
61085;SDS011;46967;48.876;2.136;2023-02-28T00:20:13;7.45;;;4.82;;
61085;SDS011;46967;48.876;2.136;2023-02-28T00:22:39;9.43;;;4.85;;
61085;SDS011;46967;48.876;2.136;2023-02-28T00:25:06;10.23;;;4.90;;
61085;SDS011;46967;48.876;2.136;2023-02-28T00:27:34;8.35;;;4.80;;
61085;SDS011;46967;48.876;2.136;2023-02-28T00:30:00;6.57;;;4.72;;
61085;SDS011;46967;48.876;2.136;2023-02-28T00:32:26;10.35;;;4.90;;
61085;SDS011;46967;48.876;2.136;2023-02-28T00:34:51;5.63;;;4.43;;
61085;SDS011;46967;48.876;2.136;2023-02-28T00:37:16;6.97;;;4.82;;
61085;SDS011;46967;48.876;2.136;2023-02-28T00:39:42;9.15;;;4.97;;
61085;SDS011;46967;48.876;2.136;2023-02-28T00:42:08;9.30;;;4.95;;
61085;SDS011;46967;48.876;2.136;2023-02-28T00:44:33;7.82;;;4.68;;
61085;SDS011;46967;48.876;2.136;2023-02-28T00:46:59;7.47;;;4.45;;
61085;SDS011;46967;48.876;2.136;2023-02-28T00:49:25;8.43;;;4.68;;
61085;SDS011;46967;48.876;2.136;2023-02-28T00:51:51;9.50;;;4.80;;
61085;SDS011;46967;48.876;2.136;2023-02-28T00:54:18;8.80;;;4.90;;
61085;SDS011;46967;48.876;2.136;2023-02-28T00:56:44;8.05;;;5.00;;
61085;SDS011;46967;48.876;2.136;2023-02-28T00:59:10;8.38;;;4.72;;
61085;SDS011;46967;48.876;2.136;2023-02-28T01:01:36;8.20;;;4.53;;
61085;SDS011;46967;48.876;2.136;2023-02-28T01:04:02;7.93;;;4.93;;
61085;SDS011;46967;48.876;2.136;2023-02-28T01:06:28;8.73;;;4.63;;
61085;SDS011;46967;48.876;2.136;2023-02-28T01:08:53;6.20;;;4.55;;
61085;SDS011;46967;48.876;2.136;2023-02-28T01:11:18;6.10;;;4.68;;
61085;SDS011;46967;48.876;2.136;2023-02-28T01:13:44;6.60;;;4.95;;
61085;SDS011;46967;48.876;2.136;2023-02-28T01:16:10;10.25;;;4.35;;
61085;SDS011;46967;48.876;2.136;2023-02-28T01:18:36;4.85;;;4.20;;
61085;SDS011;46967;48.876;2.136;2023-02-28T01:21:03;7.10;;;4.30;;
61085;SDS011;46967;48.876;2.136;2023-02-28T01:23:30;6.82;;;4.30;;
61085;SDS011;46967;48.876;2.136;2023-02-28T01:25:55;5.60;;;4.35;;
61085;SDS011;46967;48.876;2.136;2023-02-28T01:28:21;8.32;;;4.32;;
61085;SDS011;46967;48.876;2.136;2023-02-28T01:30:49;9.65;;;4.55;;
61085;SDS011;46967;48.876;2.136;2023-02-28T01:33:15;8.88;;;4.13;;
61085;SDS011;46967;48.876;2.136;2023-02-28T01:35:41;6.20;;;4.07;;
61085;SDS011;46967;48.876;2.136;2023-02-28T01:38:06;7.57;;;4.40;;
61085;SDS011;46967;48.876;2.136;2023-02-28T01:40:31;5.15;;;4.20;;
61085;SDS011;46967;48.876;2.136;2023-02-28T01:42:57;9.32;;;4.40;;
61085;SDS011;46967;48.876;2.136;2023-02-28T01:45:25;5.07;;;3.90;;
61085;SDS011;46967;48.876;2.136;2023-02-28T01:47:54;6.47;;;4.20;;
61085;SDS011;46967;48.876;2.136;2023-02-28T01:50:24;6.93;;;4.18;;
61085;SDS011;46967;48.876;2.136;2023-02-28T01:52:53;8.63;;;4.03;;
61085;SDS011;46967;48.876;2.136;2023-02-28T01:55:23;5.30;;;3.80;;
61085;SDS011;46967;48.876;2.136;2023-02-28T01:57:54;5.88;;;3.83;;
61085;SDS011;46967;48.876;2.136;2023-02-28T02:00:23;7.03;;;4.13;;
61085;SDS011;46967;48.876;2.136;2023-02-28T02:02:53;6.57;;;3.90;;
61085;SDS011;46967;48.876;2.136;2023-02-28T02:05:22;7.95;;;4.35;;
61085;SDS011;46967;48.876;2.136;2023-02-28T02:07:51;4.80;;;3.97;;
61085;SDS011;46967;48.876;2.136;2023-02-28T02:10:36;6.00;;;3.95;;
61085;SDS011;46967;48.876;2.136;2023-02-28T02:35:21;6.03;;;4.60;;
61085;SDS011;46967;48.876;2.136;2023-02-28T02:37:38;6.80;;;4.40;;
61085;SDS011;46967;48.876;2.136;2023-02-28T02:40:16;9.27;;;4.80;;
61085;SDS011;46967;48.876;2.136;2023-02-28T02:45:25;6.20;;;4.65;;
61085;SDS011;46967;48.876;2.136;2023-02-28T02:48:09;6.22;;;4.82;;
61085;SDS011;46967;48.876;2.136;2023-02-28T02:50:39;7.20;;;4.75;;
61085;SDS011;46967;48.876;2.136;2023-02-28T02:53:08;7.22;;;4.50;;
61085;SDS011;46967;48.876;2.136;2023-02-28T02:55:37;6.15;;;4.25;;
61085;SDS011;46967;48.876;2.136;2023-02-28T02:58:08;5.88;;;4.88;;
61085;SDS011;46967;48.876;2.136;2023-02-28T03:00:47;6.93;;;4.40;;
61085;SDS011;46967;48.876;2.136;2023-02-28T03:03:18;9.32;;;5.82;;
61085;SDS011;46967;48.876;2.136;2023-02-28T03:05:54;9.02;;;5.03;;
61085;SDS011;46967;48.876;2.136;2023-02-28T03:08:21;8.35;;;4.47;;
61085;SDS011;46967;48.876;2.136;2023-02-28T03:10:51;8.00;;;4.80;;
61085;SDS011;46967;48.876;2.136;2023-02-28T03:13:42;6.10;;;4.47;;
61085;SDS011;46967;48.876;2.136;2023-02-28T03:19:45;7.55;;;4.47;;
61085;SDS011;46967;48.876;2.136;2023-02-28T03:25:05;9.13;;;4.72;;
61085;SDS011;46967;48.876;2.136;2023-02-28T03:27:36;6.32;;;4.53;;
61085;SDS011;46967;48.876;2.136;2023-02-28T03:32:57;15.07;;;5.15;;
61085;SDS011;46967;48.876;2.136;2023-02-28T03:35:31;9.15;;;5.50;;
61085;SDS011;46967;48.876;2.136;2023-02-28T03:40:39;7.75;;;4.28;;
61085;SDS011;46967;48.876;2.136;2023-02-28T03:43:12;10.07;;;5.38;;
61085;SDS011;46967;48.876;2.136;2023-02-28T03:45:43;8.75;;;5.18;;
61085;SDS011;46967;48.876;2.136;2023-02-28T03:48:13;8.60;;;4.90;;
61085;SDS011;46967;48.876;2.136;2023-02-28T03:50:44;9.52;;;5.10;;
61085;SDS011;46967;48.876;2.136;2023-02-28T03:53:19;11.32;;;5.68;;
61085;SDS011;46967;48.876;2.136;2023-02-28T03:55:54;8.68;;;5.15;;
61085;SDS011;46967;48.876;2.136;2023-02-28T03:58:29;10.60;;;5.35;;
61085;SDS011;46967;48.876;2.136;2023-02-28T04:01:44;7.15;;;5.07;;
61085;SDS011;46967;48.876;2.136;2023-02-28T04:03:55;9.57;;;5.03;;
61085;SDS011;46967;48.876;2.136;2023-02-28T04:06:21;8.10;;;5.45;;
61085;SDS011;46967;48.876;2.136;2023-02-28T04:08:48;8.55;;;5.40;;
61085;SDS011;46967;48.876;2.136;2023-02-28T04:13:39;9.23;;;5.97;;
61085;SDS011;46967;48.876;2.136;2023-02-28T04:16:07;8.48;;;5.30;;
61085;SDS011;46967;48.876;2.136;2023-02-28T04:18:37;8.45;;;5.72;;
61085;SDS011;46967;48.876;2.136;2023-02-28T04:21:05;10.85;;;6.00;;
61085;SDS011;46967;48.876;2.136;2023-02-28T04:23:31;8.73;;;5.70;;
61085;SDS011;46967;48.876;2.136;2023-02-28T04:25:57;10.40;;;5.63;;
61085;SDS011;46967;48.876;2.136;2023-02-28T04:28:22;8.38;;;5.65;;
61085;SDS011;46967;48.876;2.136;2023-02-28T04:30:47;8.55;;;5.28;;
61085;SDS011;46967;48.876;2.136;2023-02-28T04:33:18;8.45;;;5.32;;
61085;SDS011;46967;48.876;2.136;2023-02-28T04:35:44;9.27;;;5.70;;
61085;SDS011;46967;48.876;2.136;2023-02-28T04:38:09;8.88;;;5.38;;
61085;SDS011;46967;48.876;2.136;2023-02-28T04:40:35;8.43;;;5.10;;
61085;SDS011;46967;48.876;2.136;2023-02-28T04:43:00;10.45;;;5.45;;
61085;SDS011;46967;48.876;2.136;2023-02-28T04:45:26;8.60;;;5.18;;
61085;SDS011;46967;48.876;2.136;2023-02-28T04:47:54;9.95;;;5.68;;
61085;SDS011;46967;48.876;2.136;2023-02-28T04:50:20;9.43;;;5.40;;
61085;SDS011;46967;48.876;2.136;2023-02-28T04:52:45;9.52;;;5.35;;
61085;SDS011;46967;48.876;2.136;2023-02-28T04:55:10;9.40;;;5.30;;
61085;SDS011;46967;48.876;2.136;2023-02-28T04:57:36;9.88;;;5.82;;
61085;SDS011;46967;48.876;2.136;2023-02-28T05:00:02;8.40;;;5.25;;
61085;SDS011;46967;48.876;2.136;2023-02-28T05:02:33;7.60;;;5.55;;
61085;SDS011;46967;48.876;2.136;2023-02-28T05:04:59;7.05;;;5.28;;
61085;SDS011;46967;48.876;2.136;2023-02-28T05:07:25;10.43;;;5.05;;
61085;SDS011;46967;48.876;2.136;2023-02-28T05:09:50;8.48;;;5.28;;
61085;SDS011;46967;48.876;2.136;2023-02-28T05:12:15;8.68;;;5.38;;
61085;SDS011;46967;48.876;2.136;2023-02-28T05:14:41;7.72;;;4.88;;
61085;SDS011;46967;48.876;2.136;2023-02-28T05:17:06;8.02;;;5.80;;
61085;SDS011;46967;48.876;2.136;2023-02-28T05:19:31;7.68;;;5.82;;
61085;SDS011;46967;48.876;2.136;2023-02-28T05:21:57;11.02;;;6.18;;
61085;SDS011;46967;48.876;2.136;2023-02-28T05:24:22;10.65;;;5.68;;
61085;SDS011;46967;48.876;2.136;2023-02-28T05:26:48;9.68;;;6.00;;
61085;SDS011;46967;48.876;2.136;2023-02-28T05:29:16;8.27;;;6.10;;
61085;SDS011;46967;48.876;2.136;2023-02-28T05:31:41;9.10;;;6.10;;
61085;SDS011;46967;48.876;2.136;2023-02-28T05:34:06;8.68;;;6.05;;
61085;SDS011;46967;48.876;2.136;2023-02-28T05:36:32;7.70;;;5.75;;
61085;SDS011;46967;48.876;2.136;2023-02-28T05:38:57;9.02;;;6.57;;
61085;SDS011;46967;48.876;2.136;2023-02-28T05:41:23;8.68;;;6.80;;
61085;SDS011;46967;48.876;2.136;2023-02-28T05:43:48;9.05;;;6.20;;
61085;SDS011;46967;48.876;2.136;2023-02-28T05:46:14;9.35;;;6.00;;
61085;SDS011;46967;48.876;2.136;2023-02-28T05:48:40;10.40;;;5.88;;
61085;SDS011;46967;48.876;2.136;2023-02-28T05:51:07;8.73;;;6.43;;
61085;SDS011;46967;48.876;2.136;2023-02-28T05:53:33;11.25;;;7.25;;
61085;SDS011;46967;48.876;2.136;2023-02-28T05:55:59;8.10;;;6.22;;
61085;SDS011;46967;48.876;2.136;2023-02-28T05:58:25;8.18;;;6.30;;
61085;SDS011;46967;48.876;2.136;2023-02-28T06:00:54;9.68;;;6.93;;
61085;SDS011;46967;48.876;2.136;2023-02-28T06:03:19;10.25;;;7.47;;
61085;SDS011;46967;48.876;2.136;2023-02-28T06:05:45;10.63;;;6.35;;
61085;SDS011;46967;48.876;2.136;2023-02-28T06:08:10;8.23;;;6.43;;
61085;SDS011;46967;48.876;2.136;2023-02-28T06:10:35;10.43;;;7.05;;
61085;SDS011;46967;48.876;2.136;2023-02-28T06:13:01;10.82;;;6.68;;
61085;SDS011;46967;48.876;2.136;2023-02-28T06:15:27;9.55;;;6.75;;
61085;SDS011;46967;48.876;2.136;2023-02-28T06:17:53;14.57;;;7.43;;
61085;SDS011;46967;48.876;2.136;2023-02-28T06:20:18;10.10;;;6.65;;
61085;SDS011;46967;48.876;2.136;2023-02-28T06:22:44;9.13;;;6.55;;
61085;SDS011;46967;48.876;2.136;2023-02-28T06:25:09;11.13;;;7.50;;
61085;SDS011;46967;48.876;2.136;2023-02-28T06:27:35;8.90;;;7.07;;
61085;SDS011;46967;48.876;2.136;2023-02-28T06:30:02;11.13;;;7.82;;
61085;SDS011;46967;48.876;2.136;2023-02-28T06:32:28;11.65;;;7.45;;
61085;SDS011;46967;48.876;2.136;2023-02-28T06:34:53;15.32;;;7.38;;
61085;SDS011;46967;48.876;2.136;2023-02-28T06:37:19;13.80;;;7.22;;
61085;SDS011;46967;48.876;2.136;2023-02-28T06:39:44;10.95;;;7.40;;
61085;SDS011;46967;48.876;2.136;2023-02-28T06:42:09;10.43;;;8.05;;
61085;SDS011;46967;48.876;2.136;2023-02-28T06:44:35;11.93;;;7.32;;
61085;SDS011;46967;48.876;2.136;2023-02-28T06:47:01;12.23;;;8.88;;
61085;SDS011;46967;48.876;2.136;2023-02-28T06:49:28;11.55;;;7.93;;
61085;SDS011;46967;48.876;2.136;2023-02-28T06:51:54;10.20;;;7.50;;
61085;SDS011;46967;48.876;2.136;2023-02-28T06:54:20;11.88;;;7.93;;
61085;SDS011;46967;48.876;2.136;2023-02-28T06:56:45;10.07;;;6.82;;
61085;SDS011;46967;48.876;2.136;2023-02-28T06:59:12;10.48;;;7.85;;
61085;SDS011;46967;48.876;2.136;2023-02-28T07:01:37;12.50;;;8.02;;
61085;SDS011;46967;48.876;2.136;2023-02-28T07:04:04;14.13;;;7.88;;
61085;SDS011;46967;48.876;2.136;2023-02-28T07:06:31;11.30;;;7.88;;
61085;SDS011;46967;48.876;2.136;2023-02-28T07:08:56;11.90;;;8.35;;
61085;SDS011;46967;48.876;2.136;2023-02-28T07:11:22;10.52;;;7.93;;
61085;SDS011;46967;48.876;2.136;2023-02-28T07:13:50;13.15;;;8.57;;
61085;SDS011;46967;48.876;2.136;2023-02-28T07:16:16;11.13;;;8.40;;
61085;SDS011;46967;48.876;2.136;2023-02-28T07:18:42;12.70;;;8.60;;
61085;SDS011;46967;48.876;2.136;2023-02-28T07:21:09;13.27;;;8.73;;
61085;SDS011;46967;48.876;2.136;2023-02-28T07:23:35;13.07;;;9.05;;
61085;SDS011;46967;48.876;2.136;2023-02-28T07:26:03;14.57;;;9.30;;
61085;SDS011;46967;48.876;2.136;2023-02-28T07:28:29;13.95;;;9.13;;
61085;SDS011;46967;48.876;2.136;2023-02-28T07:30:54;16.77;;;9.05;;
61085;SDS011;46967;48.876;2.136;2023-02-28T07:33:20;15.27;;;8.98;;
61085;SDS011;46967;48.876;2.136;2023-02-28T07:35:45;14.10;;;9.75;;
61085;SDS011;46967;48.876;2.136;2023-02-28T07:38:10;12.48;;;9.23;;
61085;SDS011;46967;48.876;2.136;2023-02-28T07:40:37;15.20;;;9.55;;
61085;SDS011;46967;48.876;2.136;2023-02-28T07:43:02;16.17;;;9.98;;
61085;SDS011;46967;48.876;2.136;2023-02-28T07:45:28;18.77;;;10.32;;
61085;SDS011;46967;48.876;2.136;2023-02-28T07:47:56;12.75;;;9.00;;
61085;SDS011;46967;48.876;2.136;2023-02-28T07:50:22;16.95;;;9.48;;
61085;SDS011;46967;48.876;2.136;2023-02-28T07:52:47;17.67;;;10.98;;
61085;SDS011;46967;48.876;2.136;2023-02-28T07:55:13;14.35;;;9.82;;
61085;SDS011;46967;48.876;2.136;2023-02-28T07:57:39;15.20;;;10.20;;
61085;SDS011;46967;48.876;2.136;2023-02-28T08:00:06;17.65;;;10.00;;
61085;SDS011;46967;48.876;2.136;2023-02-28T08:02:37;12.20;;;9.48;;
61085;SDS011;46967;48.876;2.136;2023-02-28T08:05:03;16.83;;;10.15;;
61085;SDS011;46967;48.876;2.136;2023-02-28T08:07:29;13.77;;;9.23;;
61085;SDS011;46967;48.876;2.136;2023-02-28T08:09:54;20.20;;;10.13;;
61085;SDS011;46967;48.876;2.136;2023-02-28T08:12:19;14.35;;;10.73;;
61085;SDS011;46967;48.876;2.136;2023-02-28T08:14:45;22.67;;;12.10;;
61085;SDS011;46967;48.876;2.136;2023-02-28T08:17:10;14.63;;;10.35;;
61085;SDS011;46967;48.876;2.136;2023-02-28T08:19:36;20.85;;;10.73;;
61085;SDS011;46967;48.876;2.136;2023-02-28T08:22:01;16.35;;;10.40;;
61085;SDS011;46967;48.876;2.136;2023-02-28T08:24:27;16.65;;;10.82;;
61085;SDS011;46967;48.876;2.136;2023-02-28T08:26:52;17.80;;;10.27;;
61085;SDS011;46967;48.876;2.136;2023-02-28T08:29:17;18.50;;;10.05;;
61085;SDS011;46967;48.876;2.136;2023-02-28T08:31:43;14.60;;;9.23;;
61085;SDS011;46967;48.876;2.136;2023-02-28T08:34:09;16.95;;;9.43;;
61085;SDS011;46967;48.876;2.136;2023-02-28T08:36:36;16.85;;;8.23;;
61085;SDS011;46967;48.876;2.136;2023-02-28T08:39:02;16.75;;;9.25;;
61085;SDS011;46967;48.876;2.136;2023-02-28T08:41:28;19.17;;;8.13;;
61085;SDS011;46967;48.876;2.136;2023-02-28T08:43:54;15.25;;;9.55;;
61085;SDS011;46967;48.876;2.136;2023-02-28T08:46:19;14.18;;;8.70;;
61085;SDS011;46967;48.876;2.136;2023-02-28T08:48:45;15.68;;;8.43;;
61085;SDS011;46967;48.876;2.136;2023-02-28T08:51:12;14.93;;;8.68;;
61085;SDS011;46967;48.876;2.136;2023-02-28T08:56:07;13.77;;;7.32;;
61085;SDS011;46967;48.876;2.136;2023-02-28T08:58:34;11.00;;;7.93;;
61085;SDS011;46967;48.876;2.136;2023-02-28T09:01:00;10.82;;;8.07;;
61085;SDS011;46967;48.876;2.136;2023-02-28T09:03:32;11.65;;;7.70;;
61085;SDS011;46967;48.876;2.136;2023-02-28T09:05:59;13.02;;;7.43;;
61085;SDS011;46967;48.876;2.136;2023-02-28T09:08:27;10.30;;;8.18;;
61085;SDS011;46967;48.876;2.136;2023-02-28T09:10:54;10.88;;;7.43;;
61085;SDS011;46967;48.876;2.136;2023-02-28T09:13:22;11.88;;;7.65;;
61085;SDS011;46967;48.876;2.136;2023-02-28T09:15:48;11.90;;;7.82;;
61085;SDS011;46967;48.876;2.136;2023-02-28T09:18:13;13.65;;;7.88;;
61085;SDS011;46967;48.876;2.136;2023-02-28T09:20:40;12.10;;;6.85;;
61085;SDS011;46967;48.876;2.136;2023-02-28T09:23:07;12.55;;;7.07;;
61085;SDS011;46967;48.876;2.136;2023-02-28T09:25:33;13.07;;;6.82;;
61085;SDS011;46967;48.876;2.136;2023-02-28T09:27:58;9.55;;;7.18;;
61085;SDS011;46967;48.876;2.136;2023-02-28T09:30:24;11.90;;;6.85;;
61085;SDS011;46967;48.876;2.136;2023-02-28T09:32:49;9.38;;;7.00;;
61085;SDS011;46967;48.876;2.136;2023-02-28T09:35:19;14.27;;;6.60;;
61085;SDS011;46967;48.876;2.136;2023-02-28T09:37:51;8.98;;;6.78;;
61085;SDS011;46967;48.876;2.136;2023-02-28T09:40:18;9.32;;;6.05;;
61085;SDS011;46967;48.876;2.136;2023-02-28T09:42:45;12.88;;;6.03;;
61085;SDS011;46967;48.876;2.136;2023-02-28T09:45:56;11.70;;;6.18;;
61085;SDS011;46967;48.876;2.136;2023-02-28T09:48:14;10.07;;;6.18;;
61085;SDS011;46967;48.876;2.136;2023-02-28T09:50:46;10.52;;;6.88;;
61085;SDS011;46967;48.876;2.136;2023-02-28T09:53:26;8.98;;;5.85;;
61085;SDS011;46967;48.876;2.136;2023-02-28T09:55:55;11.93;;;6.82;;
61085;SDS011;46967;48.876;2.136;2023-02-28T09:58:36;8.63;;;6.57;;
61085;SDS011;46967;48.876;2.136;2023-02-28T10:01:12;13.57;;;6.38;;
61085;SDS011;46967;48.876;2.136;2023-02-28T10:03:47;14.07;;;6.70;;
61085;SDS011;46967;48.876;2.136;2023-02-28T10:06:21;12.48;;;7.28;;
61085;SDS011;46967;48.876;2.136;2023-02-28T10:11:26;10.27;;;6.47;;
61085;SDS011;46967;48.876;2.136;2023-02-28T10:16:31;9.63;;;6.32;;
61085;SDS011;46967;48.876;2.136;2023-02-28T10:19:03;11.77;;;6.63;;
61085;SDS011;46967;48.876;2.136;2023-02-28T10:24:26;7.40;;;5.00;;
61085;SDS011;46967;48.876;2.136;2023-02-28T10:26:56;6.38;;;4.47;;
61085;SDS011;46967;48.876;2.136;2023-02-28T10:29:44;9.60;;;5.50;;
61085;SDS011;46967;48.876;2.136;2023-02-28T10:32:16;8.20;;;5.30;;
61085;SDS011;46967;48.876;2.136;2023-02-28T10:34:44;6.90;;;4.60;;
61085;SDS011;46967;48.876;2.136;2023-02-28T10:37:15;8.38;;;5.38;;
61085;SDS011;46967;48.876;2.136;2023-02-28T10:39:41;10.88;;;5.78;;
61085;SDS011;46967;48.876;2.136;2023-02-28T10:42:19;7.07;;;5.35;;
61085;SDS011;46967;48.876;2.136;2023-02-28T10:44:58;7.78;;;4.97;;
61085;SDS011;46967;48.876;2.136;2023-02-28T10:47:31;7.78;;;4.68;;
61085;SDS011;46967;48.876;2.136;2023-02-28T10:49:59;8.05;;;4.82;;
61085;SDS011;46967;48.876;2.136;2023-02-28T10:52:58;8.57;;;4.75;;
61085;SDS011;46967;48.876;2.136;2023-02-28T10:55:20;8.38;;;4.40;;
61085;SDS011;46967;48.876;2.136;2023-02-28T10:57:47;7.15;;;4.47;;
61085;SDS011;46967;48.876;2.136;2023-02-28T11:02:46;5.65;;;3.85;;
61085;SDS011;46967;48.876;2.136;2023-02-28T11:08:16;5.43;;;3.50;;
61085;SDS011;46967;48.876;2.136;2023-02-28T11:10:44;5.32;;;3.10;;
61085;SDS011;46967;48.876;2.136;2023-02-28T11:13:19;4.20;;;3.40;;
61085;SDS011;46967;48.876;2.136;2023-02-28T11:15:52;5.00;;;3.67;;
61085;SDS011;46967;48.876;2.136;2023-02-28T11:18:24;6.20;;;3.38;;
61085;SDS011;46967;48.876;2.136;2023-02-28T11:20:54;4.65;;;3.55;;
61085;SDS011;46967;48.876;2.136;2023-02-28T11:23:22;5.70;;;3.28;;
61085;SDS011;46967;48.876;2.136;2023-02-28T11:25:52;4.20;;;2.47;;
61085;SDS011;46967;48.876;2.136;2023-02-28T11:28:25;3.85;;;2.30;;
61085;SDS011;46967;48.876;2.136;2023-02-28T11:31:01;4.95;;;2.70;;
61085;SDS011;46967;48.876;2.136;2023-02-28T11:36:18;3.15;;;2.50;;
61085;SDS011;46967;48.876;2.136;2023-02-28T11:38:46;5.13;;;2.85;;
61085;SDS011;46967;48.876;2.136;2023-02-28T11:52:00;5.20;;;2.67;;
61085;SDS011;46967;48.876;2.136;2023-02-28T11:57:44;7.25;;;3.20;;
61085;SDS011;46967;48.876;2.136;2023-02-28T12:00:25;4.82;;;3.38;;
61085;SDS011;46967;48.876;2.136;2023-02-28T12:08:59;4.60;;;3.40;;
61085;SDS011;46967;48.876;2.136;2023-02-28T12:22:27;5.00;;;3.50;;
61085;SDS011;46967;48.876;2.136;2023-02-28T12:27:37;4.47;;;3.03;;
61085;SDS011;46967;48.876;2.136;2023-02-28T12:30:16;5.32;;;3.33;;
61085;SDS011;46967;48.876;2.136;2023-02-28T12:32:50;4.60;;;3.22;;
61085;SDS011;46967;48.876;2.136;2023-02-28T12:35:25;7.28;;;3.55;;
61085;SDS011;46967;48.876;2.136;2023-02-28T12:38:09;6.00;;;3.20;;
61085;SDS011;46967;48.876;2.136;2023-02-28T12:43:25;4.72;;;3.10;;
61085;SDS011;46967;48.876;2.136;2023-02-28T12:45:58;6.03;;;3.70;;
61085;SDS011;46967;48.876;2.136;2023-02-28T12:50:51;8.48;;;3.55;;
61085;SDS011;46967;48.876;2.136;2023-02-28T13:09:56;9.50;;;2.95;;
61085;SDS011;46967;48.876;2.136;2023-02-28T13:12:24;5.63;;;3.15;;
61085;SDS011;46967;48.876;2.136;2023-02-28T13:14:51;4.00;;;2.83;;
61085;SDS011;46967;48.876;2.136;2023-02-28T13:17:28;5.10;;;3.08;;
61085;SDS011;46967;48.876;2.136;2023-02-28T13:22:41;5.30;;;3.13;;
61085;SDS011;46967;48.876;2.136;2023-02-28T13:27:46;5.57;;;3.33;;
61085;SDS011;46967;48.876;2.136;2023-02-28T13:36:32;4.57;;;3.17;;
61085;SDS011;46967;48.876;2.136;2023-02-28T13:38:42;5.50;;;3.60;;
61085;SDS011;46967;48.876;2.136;2023-02-28T13:51:48;5.15;;;3.47;;
61085;SDS011;46967;48.876;2.136;2023-02-28T13:56:56;3.85;;;3.00;;
61085;SDS011;46967;48.876;2.136;2023-02-28T14:07:51;6.22;;;3.40;;
61085;SDS011;46967;48.876;2.136;2023-02-28T14:10:23;6.15;;;3.28;;
61085;SDS011;46967;48.876;2.136;2023-02-28T14:12:56;5.50;;;3.13;;
61085;SDS011;46967;48.876;2.136;2023-02-28T14:15:40;4.70;;;2.58;;
61085;SDS011;46967;48.876;2.136;2023-02-28T14:20:47;3.70;;;2.97;;
61085;SDS011;46967;48.876;2.136;2023-02-28T14:23:20;4.40;;;2.75;;
61085;SDS011;46967;48.876;2.136;2023-02-28T14:28:40;4.05;;;2.97;;
61085;SDS011;46967;48.876;2.136;2023-02-28T14:31:18;4.30;;;3.20;;
61085;SDS011;46967;48.876;2.136;2023-02-28T14:36:42;5.10;;;2.90;;
61085;SDS011;46967;48.876;2.136;2023-02-28T14:39:22;4.80;;;2.90;;
61085;SDS011;46967;48.876;2.136;2023-02-28T14:41:50;3.58;;;2.85;;
61085;SDS011;46967;48.876;2.136;2023-02-28T14:46:49;3.53;;;3.20;;
61085;SDS011;46967;48.876;2.136;2023-02-28T14:51:49;5.15;;;2.72;;
61085;SDS011;46967;48.876;2.136;2023-02-28T14:54:26;6.88;;;2.90;;
61085;SDS011;46967;48.876;2.136;2023-02-28T14:56:51;3.08;;;2.40;;
61085;SDS011;46967;48.876;2.136;2023-02-28T15:01:50;4.13;;;2.80;;
61085;SDS011;46967;48.876;2.136;2023-02-28T15:04:26;3.70;;;2.80;;
61085;SDS011;46967;48.876;2.136;2023-02-28T15:07:10;5.13;;;3.05;;
61085;SDS011;46967;48.876;2.136;2023-02-28T15:09:38;3.67;;;2.90;;
61085;SDS011;46967;48.876;2.136;2023-02-28T15:12:03;5.32;;;3.28;;
61085;SDS011;46967;48.876;2.136;2023-02-28T15:14:29;6.32;;;3.35;;
61085;SDS011;46967;48.876;2.136;2023-02-28T15:16:56;3.40;;;2.67;;
61085;SDS011;46967;48.876;2.136;2023-02-28T15:19:29;5.22;;;3.15;;
61085;SDS011;46967;48.876;2.136;2023-02-28T15:22:04;3.78;;;2.78;;
61085;SDS011;46967;48.876;2.136;2023-02-28T15:24:37;3.97;;;2.88;;
61085;SDS011;46967;48.876;2.136;2023-02-28T15:27:07;3.90;;;3.20;;
61085;SDS011;46967;48.876;2.136;2023-02-28T15:29:51;4.22;;;2.97;;
61085;SDS011;46967;48.876;2.136;2023-02-28T15:32:24;4.22;;;2.95;;
61085;SDS011;46967;48.876;2.136;2023-02-28T15:34:52;4.97;;;3.05;;
61085;SDS011;46967;48.876;2.136;2023-02-28T15:42:35;6.00;;;2.97;;
61085;SDS011;46967;48.876;2.136;2023-02-28T15:45:00;5.28;;;2.80;;
61085;SDS011;46967;48.876;2.136;2023-02-28T15:47:26;4.72;;;3.00;;
61085;SDS011;46967;48.876;2.136;2023-02-28T15:50:06;3.97;;;2.58;;
61085;SDS011;46967;48.876;2.136;2023-02-28T15:52:38;4.05;;;2.50;;
61085;SDS011;46967;48.876;2.136;2023-02-28T15:57:43;5.85;;;2.83;;
61085;SDS011;46967;48.876;2.136;2023-02-28T16:00:11;3.60;;;2.70;;
61085;SDS011;46967;48.876;2.136;2023-02-28T16:02:39;3.13;;;2.65;;
61085;SDS011;46967;48.876;2.136;2023-02-28T16:07:39;4.95;;;3.00;;
61085;SDS011;46967;48.876;2.136;2023-02-28T16:10:08;3.38;;;3.08;;
61085;SDS011;46967;48.876;2.136;2023-02-28T16:12:36;5.70;;;3.10;;
61085;SDS011;46967;48.876;2.136;2023-02-28T16:15:17;3.95;;;2.83;;
61085;SDS011;46967;48.876;2.136;2023-02-28T16:17:46;4.25;;;2.97;;
61085;SDS011;46967;48.876;2.136;2023-02-28T16:20:12;5.22;;;3.20;;
61085;SDS011;46967;48.876;2.136;2023-02-28T16:22:40;4.03;;;3.10;;
61085;SDS011;46967;48.876;2.136;2023-02-28T16:25:07;4.30;;;3.00;;
61085;SDS011;46967;48.876;2.136;2023-02-28T16:27:36;4.90;;;3.25;;
61085;SDS011;46967;48.876;2.136;2023-02-28T16:30:03;5.93;;;3.28;;
61085;SDS011;46967;48.876;2.136;2023-02-28T16:32:30;4.22;;;3.20;;
61085;SDS011;46967;48.876;2.136;2023-02-28T16:34:59;4.85;;;3.10;;
61085;SDS011;46967;48.876;2.136;2023-02-28T16:37:26;4.55;;;3.20;;
61085;SDS011;46967;48.876;2.136;2023-02-28T16:39:52;3.10;;;2.58;;
61085;SDS011;46967;48.876;2.136;2023-02-28T16:42:22;5.60;;;2.90;;
61085;SDS011;46967;48.876;2.136;2023-02-28T16:44:49;3.72;;;3.05;;
61085;SDS011;46967;48.876;2.136;2023-02-28T16:47:16;5.15;;;3.00;;
61085;SDS011;46967;48.876;2.136;2023-02-28T16:49:41;5.05;;;3.20;;
61085;SDS011;46967;48.876;2.136;2023-02-28T16:52:08;4.93;;;3.20;;
61085;SDS011;46967;48.876;2.136;2023-02-28T16:54:34;4.22;;;2.75;;
61085;SDS011;46967;48.876;2.136;2023-02-28T16:56:59;3.92;;;2.60;;
61085;SDS011;46967;48.876;2.136;2023-02-28T16:59:25;4.40;;;3.05;;
61085;SDS011;46967;48.876;2.136;2023-02-28T17:01:52;4.22;;;3.13;;
61085;SDS011;46967;48.876;2.136;2023-02-28T17:04:18;4.38;;;3.20;;
61085;SDS011;46967;48.876;2.136;2023-02-28T17:06:43;5.22;;;3.42;;
61085;SDS011;46967;48.876;2.136;2023-02-28T17:09:19;5.35;;;3.17;;
61085;SDS011;46967;48.876;2.136;2023-02-28T17:11:46;5.35;;;3.38;;
61085;SDS011;46967;48.876;2.136;2023-02-28T17:14:12;8.57;;;3.72;;
61085;SDS011;46967;48.876;2.136;2023-02-28T17:16:37;5.80;;;3.13;;
61085;SDS011;46967;48.876;2.136;2023-02-28T17:19:10;3.88;;;2.70;;
61085;SDS011;46967;48.876;2.136;2023-02-28T17:21:37;5.15;;;3.47;;
61085;SDS011;46967;48.876;2.136;2023-02-28T17:24:03;4.78;;;3.08;;
61085;SDS011;46967;48.876;2.136;2023-02-28T17:26:29;5.10;;;3.13;;
61085;SDS011;46967;48.876;2.136;2023-02-28T17:28:55;3.67;;;2.95;;
61085;SDS011;46967;48.876;2.136;2023-02-28T17:31:22;6.93;;;3.80;;
61085;SDS011;46967;48.876;2.136;2023-02-28T17:33:48;4.38;;;3.20;;
61085;SDS011;46967;48.876;2.136;2023-02-28T17:36:14;4.32;;;3.05;;
61085;SDS011;46967;48.876;2.136;2023-02-28T17:38:46;7.18;;;3.30;;
61085;SDS011;46967;48.876;2.136;2023-02-28T17:41:12;5.55;;;3.05;;
61085;SDS011;46967;48.876;2.136;2023-02-28T17:43:38;6.25;;;3.30;;